Time;durP1;ratioP1;P1;durP2;ratioP2;P2;SDS_P1;SDS_P2;PMS_P1;PMS_P2;Temp;Humidity;BMP_temperature;BMP_pressure;BME280_temperature;BME280_humidity;BME280_pressure;Samples;Min_cycle;Max_cycle;Signal;HPM_P1;HPM_P2
2023/08/13 00:01:07;;;;;;;4.15;3.10;;;25.10;54.40;;;;;;5134257;27;20048;-73
2023/08/13 00:03:33;;;;;;;3.30;3.00;;;25.20;54.50;;;;;;5134245;27;20110;-72
2023/08/13 00:05:59;;;;;;;4.13;3.28;;;25.10;54.50;;;;;;5134513;27;20027;-71
2023/08/13 00:08:24;;;;;;;3.70;3.20;;;25.10;54.50;;;;;;5134364;27;20027;-73
2023/08/13 00:10:50;;;;;;;3.30;3.00;;;25.10;54.60;;;;;;5134004;27;20051;-72
2023/08/13 00:13:16;;;;;;;3.72;2.83;;;25.10;54.60;;;;;;5134221;27;20071;-72
2023/08/13 00:15:43;;;;;;;3.38;3.08;;;25.10;54.60;;;;;;5133725;27;20054;-73
2023/08/13 00:18:10;;;;;;;3.45;3.13;;;25.10;54.60;;;;;;5134011;27;20457;-72
2023/08/13 00:20:36;;;;;;;3.08;2.78;;;25.10;54.70;;;;;;5134333;27;20027;-72
2023/08/13 00:23:02;;;;;;;3.83;3.05;;;25.10;54.70;;;;;;5134216;27;20375;-72
2023/08/13 00:25:27;;;;;;;3.97;3.20;;;25.10;54.70;;;;;;5134206;27;20023;-72
2023/08/13 00:27:53;;;;;;;4.05;3.10;;;25.10;54.80;;;;;;5133610;27;20040;-72
2023/08/13 00:30:19;;;;;;;4.00;3.28;;;25.00;54.70;;;;;;5133734;27;20038;-72
2023/08/13 00:32:44;;;;;;;3.42;3.00;;;25.10;54.80;;;;;;5133685;27;20453;-72
2023/08/13 00:35:10;;;;;;;4.07;3.30;;;25.00;54.80;;;;;;5133818;27;20035;-73
2023/08/13 00:37:36;;;;;;;3.45;2.90;;;25.00;54.80;;;;;;5149834;27;20051;-72
2023/08/13 00:40:04;;;;;;;3.38;3.03;;;25.00;54.80;;;;;;5133660;27;20019;-72
2023/08/13 00:42:29;;;;;;;3.70;2.90;;;25.00;54.80;;;;;;5149948;27;20473;-71
2023/08/13 00:44:55;;;;;;;5.30;3.15;;;25.00;54.90;;;;;;5133653;27;20079;-72
2023/08/13 00:47:21;;;;;;;3.28;2.97;;;25.00;54.90;;;;;;5133072;27;20079;-72
2023/08/13 00:49:48;;;;;;;3.53;3.05;;;25.00;54.90;;;;;;5133649;27;20380;-71
2023/08/13 00:52:14;;;;;;;3.45;3.15;;;25.00;54.90;;;;;;5133816;28;20471;-72
2023/08/13 00:54:40;;;;;;;3.20;2.90;;;25.00;55.00;;;;;;5133524;28;20059;-72
2023/08/13 00:57:06;;;;;;;4.00;3.20;;;25.00;54.90;;;;;;5133657;27;20027;-71
2023/08/13 00:59:33;;;;;;;4.35;3.15;;;25.00;55.00;;;;;;5148544;27;20030;-72
2023/08/13 01:02:00;;;;;;;3.47;3.17;;;25.00;55.00;;;;;;5149782;27;20114;-72
2023/08/13 01:04:25;;;;;;;3.17;2.78;;;24.90;55.00;;;;;;5133764;28;20077;-72
2023/08/13 01:07:01;;;;;;;3.72;3.00;;;25.00;55.00;;;;;;5133950;28;20066;-71
2023/08/13 01:10:02;;;;;;;4.60;3.35;;;25.00;55.00;;;;;;5149113;27;20058;-72
2023/08/13 01:12:48;;;;;;;3.28;2.85;;;24.90;55.00;;;;;;5097781;28;20055;-72
2023/08/13 01:15:22;;;;;;;3.53;3.00;;;24.90;55.10;;;;;;5149588;27;20024;-73
2023/08/13 01:17:51;;;;;;;5.75;3.08;;;24.90;55.00;;;;;;5149241;27;20024;-72
2023/08/13 01:20:18;;;;;;;3.75;2.80;;;25.00;55.00;;;;;;5133142;27;20028;-72
2023/08/13 01:22:48;;;;;;;4.07;2.90;;;24.90;55.00;;;;;;5133247;28;20066;-72
2023/08/13 01:25:14;;;;;;;3.53;3.22;;;25.00;55.10;;;;;;5149607;27;20023;-72
2023/08/13 01:27:59;;;;;;;3.65;2.85;;;24.90;55.00;;;;;;5133109;28;20114;-71
2023/08/13 01:30:34;;;;;;;3.63;3.17;;;24.90;55.10;;;;;;5133233;27;20028;-71
2023/08/13 01:33:04;;;;;;;3.35;3.05;;;24.90;55.10;;;;;;5133112;27;20164;-72
2023/08/13 01:35:32;;;;;;;3.33;3.03;;;24.90;55.10;;;;;;5148960;27;20030;-73
2023/08/13 01:37:59;;;;;;;3.33;2.90;;;24.90;55.10;;;;;;5133527;27;20027;-72
2023/08/13 01:40:25;;;;;;;3.83;3.22;;;24.90;55.10;;;;;;5133145;28;20052;-73
2023/08/13 01:42:51;;;;;;;3.67;3.10;;;24.90;55.10;;;;;;5133295;27;20063;-72
2023/08/13 01:45:17;;;;;;;3.90;3.15;;;24.90;55.10;;;;;;5133252;27;20099;-73
2023/08/13 01:47:42;;;;;;;3.13;2.83;;;24.90;55.10;;;;;;5148371;27;20023;-73
2023/08/13 01:50:08;;;;;;;3.55;3.05;;;24.90;55.20;;;;;;5149323;27;20023;-72
2023/08/13 01:52:34;;;;;;;3.47;3.10;;;24.90;55.10;;;;;;5133061;27;20035;-72
2023/08/13 01:55:00;;;;;;;3.22;2.83;;;24.90;55.20;;;;;;5133018;28;20024;-72
2023/08/13 01:57:26;;;;;;;4.47;2.90;;;24.80;55.10;;;;;;5133100;27;20030;-72
2023/08/13 01:59:51;;;;;;;3.17;2.88;;;24.90;55.20;;;;;;5136110;27;20035;-73
2023/08/13 02:02:17;;;;;;;3.22;2.80;;;24.80;55.10;;;;;;5136439;27;20053;-72
2023/08/13 02:04:42;;;;;;;4.47;2.83;;;24.80;55.20;;;;;;5136866;27;20047;-73
2023/08/13 02:07:08;;;;;;;3.67;2.80;;;24.80;55.20;;;;;;5137023;27;20098;-72
2023/08/13 02:09:34;;;;;;;3.33;2.90;;;24.80;55.20;;;;;;5136445;27;20047;-72
2023/08/13 02:11:59;;;;;;;3.03;2.60;;;24.80;55.20;;;;;;5136085;27;20109;-72
2023/08/13 02:14:25;;;;;;;3.40;2.90;;;24.80;55.20;;;;;;5136446;27;20023;-72
2023/08/13 02:16:51;;;;;;;4.15;3.08;;;24.80;55.80;;;;;;5136379;27;20046;-72
2023/08/13 02:19:17;;;;;;;3.38;2.75;;;24.80;55.20;;;;;;5136888;27;20453;-72
2023/08/13 02:21:42;;;;;;;3.90;2.80;;;24.80;55.20;;;;;;5135804;27;20106;-73
2023/08/13 02:24:08;;;;;;;3.20;2.90;;;24.80;55.30;;;;;;5136147;27;20023;-72
2023/08/13 02:26:34;;;;;;;3.47;2.65;;;24.80;55.30;;;;;;5136367;27;20062;-72
2023/08/13 02:28:59;;;;;;;3.33;3.03;;;24.70;55.20;;;;;;5136253;27;20524;-73
2023/08/13 02:31:25;;;;;;;3.20;2.90;;;24.80;55.20;;;;;;5136153;27;20033;-72
2023/08/13 02:33:50;;;;;;;3.22;2.60;;;24.70;55.20;;;;;;5135748;27;20046;-72
2023/08/13 02:36:16;;;;;;;3.20;2.72;;;24.70;55.20;;;;;;5135975;27;20023;-73
2023/08/13 02:38:42;;;;;;;4.20;2.85;;;24.80;55.30;;;;;;5136222;27;20476;-72
2023/08/13 02:41:07;;;;;;;3.92;2.88;;;24.70;55.20;;;;;;5136004;27;20023;-72
2023/08/13 02:43:55;;;;;;;3.90;2.80;;;24.70;55.20;;;;;;5135390;27;20573;-73
2023/08/13 02:46:22;;;;;;;2.95;2.65;;;24.70;55.20;;;;;;5136480;27;20031;-72
2023/08/13 02:48:47;;;;;;;3.38;2.80;;;24.70;55.20;;;;;;5135650;27;20030;-72
2023/08/13 02:51:14;;;;;;;3.20;2.58;;;24.70;55.20;;;;;;5135841;27;20023;-72
2023/08/13 02:53:41;;;;;;;2.95;2.60;;;24.70;55.20;;;;;;5150831;27;20537;-73
2023/08/13 02:56:07;;;;;;;3.28;2.70;;;24.70;55.20;;;;;;5151725;27;20114;-73
2023/08/13 02:58:32;;;;;;;4.18;2.92;;;24.70;55.20;;;;;;5135534;27;20041;-73
2023/08/13 03:00:59;;;;;;;3.53;2.90;;;24.70;55.20;;;;;;5135561;27;20023;-73
2023/08/13 03:03:25;;;;;;;3.10;2.80;;;24.70;55.20;;;;;;5135756;27;20035;-73
2023/08/13 03:05:50;;;;;;;3.20;2.90;;;24.70;55.10;;;;;;5135622;27;20038;-73
2023/08/13 03:08:16;;;;;;;3.25;2.90;;;24.70;55.10;;;;;;5135705;27;20027;-72
2023/08/13 03:10:42;;;;;;;3.08;2.60;;;24.70;55.10;;;;;;5133114;27;20054;-72
2023/08/13 03:13:07;;;;;;;2.72;2.53;;;24.70;55.10;;;;;;5134886;27;20038;-72
2023/08/13 03:15:33;;;;;;;3.42;2.97;;;24.80;55.10;;;;;;5135143;27;20116;-72
2023/08/13 03:17:59;;;;;;;3.13;2.83;;;24.70;55.10;;;;;;5135304;27;20449;-72
2023/08/13 03:20:24;;;;;;;2.70;2.50;;;24.80;55.10;;;;;;5135388;27;20385;-72
2023/08/13 03:22:50;;;;;;;3.50;2.60;;;24.80;55.10;;;;;;5133953;27;20034;-72
2023/08/13 03:25:15;;;;;;;3.10;2.55;;;24.80;55.00;;;;;;5134569;27;20023;-72
2023/08/13 03:27:41;;;;;;;3.10;2.80;;;24.80;55.00;;;;;;5134853;27;20050;-72
2023/08/13 03:30:07;;;;;;;2.97;2.58;;;24.80;55.00;;;;;;5135461;27;20026;-72
2023/08/13 03:32:33;;;;;;;3.38;2.72;;;24.80;54.90;;;;;;5134198;27;20030;-72
2023/08/13 03:34:58;;;;;;;4.47;2.60;;;24.80;54.90;;;;;;5134950;27;20110;-72
2023/08/13 03:37:24;;;;;;;2.88;2.47;;;24.80;54.90;;;;;;5134731;27;20473;-72
2023/08/13 03:39:50;;;;;;;2.70;2.50;;;24.80;54.80;;;;;;5150734;27;20117;-72
2023/08/13 03:42:15;;;;;;;2.83;2.33;;;24.80;54.80;;;;;;5134793;27;20058;-71
2023/08/13 03:44:41;;;;;;;3.03;2.65;;;24.90;54.80;;;;;;5134810;27;20026;-71
2023/08/13 03:47:07;;;;;;;3.10;2.53;;;24.90;54.80;;;;;;5151285;27;20744;-71
2023/08/13 03:49:33;;;;;;;2.40;2.20;;;24.90;54.70;;;;;;5134559;27;20115;-72
2023/08/13 03:51:59;;;;;;;3.00;2.70;;;24.90;54.70;;;;;;5134745;27;20034;-72
2023/08/13 03:54:25;;;;;;;3.20;2.65;;;24.90;54.60;;;;;;5134485;27;20027;-72
2023/08/13 03:56:51;;;;;;;3.28;2.50;;;24.90;54.60;;;;;;5134337;27;20023;-73
2023/08/13 03:59:16;;;;;;;4.00;2.47;;;24.90;54.60;;;;;;5134810;27;20028;-72
2023/08/13 04:01:42;;;;;;;2.58;2.30;;;25.00;54.60;;;;;;5133973;27;20024;-73
2023/08/13 04:04:07;;;;;;;2.85;2.33;;;25.00;54.50;;;;;;5134727;27;20027;-72
2023/08/13 04:06:33;;;;;;;3.85;2.60;;;25.00;54.50;;;;;;5134352;27;20031;-72
2023/08/13 04:08:59;;;;;;;2.78;2.58;;;25.00;54.40;;;;;;5134448;27;20043;-73
2023/08/13 04:11:25;;;;;;;2.67;2.40;;;25.00;54.40;;;;;;5134234;27;20038;-72
2023/08/13 04:13:50;;;;;;;3.03;2.60;;;25.00;54.40;;;;;;5149821;27;20408;-71
2023/08/13 04:16:16;;;;;;;3.03;2.67;;;25.00;54.30;;;;;;5134331;27;20031;-72
2023/08/13 04:18:41;;;;;;;4.05;2.35;;;25.10;54.40;;;;;;5134369;27;20019;-72
2023/08/13 04:21:07;;;;;;;2.95;2.33;;;25.10;54.40;;;;;;5134291;27;20098;-73
2023/08/13 04:23:33;;;;;;;3.40;2.55;;;25.10;54.30;;;;;;5134065;27;20027;-72
2023/08/13 04:25:59;;;;;;;2.80;2.45;;;25.10;54.30;;;;;;5149378;27;20448;-73
2023/08/13 04:28:25;;;;;;;3.53;2.50;;;25.10;54.30;;;;;;5150372;27;20031;-72
2023/08/13 04:30:50;;;;;;;2.80;2.50;;;25.10;54.20;;;;;;5134440;27;20058;-71
2023/08/13 04:33:16;;;;;;;3.20;2.40;;;25.10;54.20;;;;;;5134185;27;20033;-72
2023/08/13 04:35:42;;;;;;;2.60;2.40;;;25.10;54.10;;;;;;5133727;27;20027;-72
2023/08/13 04:38:07;;;;;;;3.17;2.38;;;25.10;54.10;;;;;;5133292;27;20028;-71
2023/08/13 04:40:34;;;;;;;2.63;2.40;;;25.10;54.10;;;;;;5133702;27;20072;-72
2023/08/13 04:43:00;;;;;;;2.78;2.53;;;25.20;54.10;;;;;;5134141;27;20096;-72
2023/08/13 04:45:25;;;;;;;2.83;2.53;;;25.20;54.10;;;;;;5133930;27;20035;-73
2023/08/13 04:47:51;;;;;;;3.83;2.65;;;25.20;54.10;;;;;;5133517;27;20031;-72
2023/08/13 04:50:17;;;;;;;2.85;2.30;;;25.20;54.10;;;;;;5133569;27;20029;-72
2023/08/13 04:52:43;;;;;;;2.50;2.30;;;25.20;54.10;;;;;;5133748;28;20077;-72
2023/08/13 04:55:09;;;;;;;2.38;2.17;;;25.20;54.10;;;;;;5149350;27;20023;-73
2023/08/13 04:57:35;;;;;;;2.65;2.30;;;25.20;54.00;;;;;;5149394;27;20023;-73
2023/08/13 05:00:01;;;;;;;3.47;2.65;;;25.20;54.00;;;;;;5133964;28;20023;-72
2023/08/13 05:02:27;;;;;;;2.80;2.40;;;25.30;54.10;;;;;;5133552;27;20080;-72
2023/08/13 05:04:53;;;;;;;3.25;2.60;;;25.30;54.10;;;;;;5133664;27;20028;-72
2023/08/13 05:07:19;;;;;;;2.90;2.60;;;25.30;54.10;;;;;;5133518;27;20023;-71
2023/08/13 05:09:45;;;;;;;3.15;2.70;;;25.30;54.10;;;;;;5133411;27;20389;-72
2023/08/13 05:12:11;;;;;;;3.28;2.40;;;25.30;54.10;;;;;;5133809;28;20035;-72
2023/08/13 05:14:36;;;;;;;5.20;2.50;;;25.30;54.10;;;;;;5133504;27;20127;-72
2023/08/13 05:17:02;;;;;;;2.90;2.60;;;25.40;54.20;;;;;;5133450;28;20059;-72
2023/08/13 05:19:28;;;;;;;2.83;2.58;;;25.30;54.10;;;;;;5133314;27;20027;-73
2023/08/13 05:21:54;;;;;;;2.53;2.30;;;25.30;54.10;;;;;;5133337;28;20035;-72
2023/08/13 05:24:19;;;;;;;3.33;2.50;;;25.40;54.20;;;;;;5133277;28;20023;-74
2023/08/13 05:26:45;;;;;;;2.75;2.38;;;25.40;54.20;;;;;;5133517;28;20104;-72
2023/08/13 05:29:10;;;;;;;2.78;2.33;;;25.40;54.20;;;;;;5133369;27;20023;-73
2023/08/13 05:31:36;;;;;;;2.63;2.35;;;25.40;54.20;;;;;;5133027;28;20037;-73
2023/08/13 05:34:02;;;;;;;3.75;2.50;;;25.40;54.20;;;;;;5136037;27;20388;-73
2023/08/13 05:36:27;;;;;;;2.97;2.45;;;25.40;54.20;;;;;;5137410;27;20031;-73
2023/08/13 05:38:53;;;;;;;2.90;2.60;;;25.40;54.20;;;;;;5136538;27;20023;-73
2023/08/13 05:41:19;;;;;;;2.53;2.33;;;25.40;54.20;;;;;;5137515;27;20057;-72
2023/08/13 05:43:44;;;;;;;3.10;2.47;;;25.50;54.30;;;;;;5137057;27;20034;-72
2023/08/13 05:46:10;;;;;;;2.40;2.20;;;25.50;54.30;;;;;;5137635;27;20028;-73
2023/08/13 05:48:36;;;;;;;3.13;2.40;;;25.50;54.30;;;;;;5137025;27;20050;-74
2023/08/13 05:51:01;;;;;;;2.90;2.33;;;25.50;54.30;;;;;;5136963;27;20030;-73
2023/08/13 05:53:27;;;;;;;2.88;2.50;;;25.50;54.30;;;;;;5152585;27;20051;-72
2023/08/13 05:55:53;;;;;;;3.33;2.45;;;25.50;54.30;;;;;;5136787;27;20034;-72
2023/08/13 05:58:18;;;;;;;3.10;2.28;;;25.50;54.30;;;;;;5153236;27;20030;-73
2023/08/13 06:00:44;;;;;;;2.50;2.30;;;25.50;54.30;;;;;;5136903;27;20031;-72
2023/08/13 06:03:10;;;;;;;2.72;2.33;;;25.50;54.30;;;;;;5136921;27;20038;-73
2023/08/13 06:05:37;;;;;;;2.65;2.17;;;25.50;54.30;;;;;;5152606;27;20117;-72
2023/08/13 06:08:03;;;;;;;2.45;2.20;;;25.50;54.30;;;;;;5136501;27;20041;-72
2023/08/13 06:10:29;;;;;;;3.30;2.30;;;25.60;54.40;;;;;;5136602;27;20043;-72
2023/08/13 06:12:55;;;;;;;2.58;2.15;;;25.60;54.40;;;;;;5136783;27;20071;-72
2023/08/13 06:15:21;;;;;;;2.45;2.20;;;25.60;54.40;;;;;;5136691;27;20076;-73
2023/08/13 06:17:48;;;;;;;3.00;2.30;;;25.60;54.40;;;;;;5136405;27;20046;-72
2023/08/13 06:20:14;;;;;;;2.70;2.22;;;25.60;54.40;;;;;;5152098;27;20084;-72
2023/08/13 06:22:40;;;;;;;2.42;2.10;;;25.60;54.40;;;;;;5136307;27;20034;-73
2023/08/13 06:25:06;;;;;;;2.65;2.10;;;25.60;54.40;;;;;;5136556;27;20415;-72
2023/08/13 06:27:32;;;;;;;2.17;1.98;;;25.60;54.30;;;;;;5135801;27;20468;-73
2023/08/13 06:29:57;;;;;;;2.50;2.10;;;25.60;54.30;;;;;;5136134;27;20433;-72
2023/08/13 06:32:23;;;;;;;2.50;1.98;;;25.60;54.30;;;;;;5136259;27;20054;-72
2023/08/13 06:34:49;;;;;;;2.78;2.10;;;25.70;55.00;;;;;;5136072;27;20027;-72
2023/08/13 06:37:14;;;;;;;3.75;2.10;;;25.70;54.30;;;;;;5135822;27;20052;-72
2023/08/13 06:39:40;;;;;;;2.00;1.90;;;25.70;54.30;;;;;;5135799;27;20127;-72
2023/08/13 06:42:06;;;;;;;3.78;1.90;;;25.70;54.30;;;;;;5135900;27;20027;-72
2023/08/13 06:44:32;;;;;;;3.35;2.20;;;25.70;54.30;;;;;;5134852;27;20483;-72
2023/08/13 06:46:57;;;;;;;2.55;2.00;;;25.70;54.30;;;;;;5136021;27;20031;-72
2023/08/13 06:49:23;;;;;;;1.90;1.80;;;25.70;54.30;;;;;;5151964;27;20023;-72
2023/08/13 06:51:49;;;;;;;2.00;1.88;;;25.70;54.30;;;;;;5134783;27;20497;-73
2023/08/13 06:54:14;;;;;;;2.42;2.20;;;25.70;54.20;;;;;;5134345;27;20118;-72
2023/08/13 06:56:40;;;;;;;1.98;1.77;;;25.70;54.20;;;;;;5135532;27;20026;-72
2023/08/13 06:59:05;;;;;;;2.20;2.00;;;25.70;54.10;;;;;;5135607;27;20027;-73
2023/08/13 07:01:32;;;;;;;2.10;1.90;;;25.70;54.10;;;;;;5134968;27;20539;-72
2023/08/13 07:03:57;;;;;;;2.13;1.80;;;25.70;54.00;;;;;;5135175;27;20072;-72
2023/08/13 07:06:24;;;;;;;1.92;1.73;;;25.70;54.00;;;;;;5134887;27;20434;-73
2023/08/13 07:08:50;;;;;;;1.80;1.70;;;25.80;54.10;;;;;;5151105;27;20027;-73
2023/08/13 07:11:16;;;;;;;2.08;1.73;;;25.80;54.00;;;;;;5135357;27;20438;-72
2023/08/13 07:13:42;;;;;;;1.88;1.65;;;25.80;54.00;;;;;;5135102;27;20098;-73
2023/08/13 07:16:13;;;;;;;1.58;1.45;;;25.80;53.90;;;;;;5151607;27;20111;-72
2023/08/13 07:18:39;;;;;;;2.42;1.45;;;25.80;53.90;;;;;;5134931;27;20110;-73
2023/08/13 07:21:06;;;;;;;2.10;1.60;;;25.80;53.90;;;;;;5135429;27;20152;-72
2023/08/13 07:23:32;;;;;;;1.60;1.50;;;25.80;53.80;;;;;;5135051;27;20034;-72
2023/08/13 07:25:58;;;;;;;1.90;1.70;;;25.80;53.70;;;;;;5134000;27;20114;-72
2023/08/13 07:28:23;;;;;;;1.50;1.40;;;25.80;53.70;;;;;;5135070;27;20051;-72
2023/08/13 07:30:49;;;;;;;2.00;1.48;;;25.80;53.60;;;;;;5133609;27;20031;-72
2023/08/13 07:33:15;;;;;;;1.63;1.52;;;25.80;53.60;;;;;;5133010;27;20034;-73
2023/08/13 07:35:41;;;;;;;1.55;1.45;;;25.90;53.60;;;;;;5134878;27;20118;-72
2023/08/13 07:38:07;;;;;;;1.85;1.60;;;25.80;53.50;;;;;;5134969;27;20019;-73
2023/08/13 07:40:34;;;;;;;1.50;1.40;;;25.90;53.50;;;;;;5135204;27;20035;-74
2023/08/13 07:43:00;;;;;;;1.60;1.50;;;25.90;53.50;;;;;;5150281;27;20037;-71
2023/08/13 07:45:29;;;;;;;1.50;1.40;;;25.90;53.40;;;;;;5134876;27;20065;-71
2023/08/13 07:47:55;;;;;;;1.92;1.48;;;25.90;53.40;;;;;;5134473;27;20019;-72
2023/08/13 07:50:20;;;;;;;1.40;1.30;;;25.90;53.30;;;;;;5135159;27;20379;-71
2023/08/13 07:52:46;;;;;;;1.90;1.60;;;25.90;53.30;;;;;;5134703;27;20774;-72
2023/08/13 07:55:12;;;;;;;1.80;1.50;;;25.90;53.20;;;;;;5134112;27;20472;-71
2023/08/13 07:57:37;;;;;;;1.75;1.42;;;25.90;53.20;;;;;;5134115;27;20468;-72
2023/08/13 08:00:07;;;;;;;2.13;1.67;;;25.90;53.10;;;;;;5134452;27;20388;-72
2023/08/13 08:02:34;;;;;;;1.60;1.42;;;25.90;53.10;;;;;;5150242;27;20024;-72
2023/08/13 08:05:00;;;;;;;1.45;1.33;;;26.00;53.10;;;;;;5134293;27;20038;-72
2023/08/13 08:07:27;;;;;;;1.40;1.30;;;26.00;53.00;;;;;;5134366;27;20368;-72
2023/08/13 08:09:52;;;;;;;1.85;1.60;;;26.00;52.90;;;;;;5132518;27;20108;-71
2023/08/13 08:12:18;;;;;;;1.80;1.30;;;26.00;52.90;;;;;;5134212;27;20339;-71
2023/08/13 08:14:43;;;;;;;1.60;1.50;;;26.00;52.80;;;;;;5133908;27;20049;-72
2023/08/13 08:17:09;;;;;;;2.00;1.63;;;26.00;52.70;;;;;;5150054;27;20484;-72
2023/08/13 08:19:35;;;;;;;1.50;1.40;;;26.00;52.70;;;;;;5133693;27;20381;-72
2023/08/13 08:22:00;;;;;;;1.65;1.38;;;26.10;52.70;;;;;;5134638;27;20167;-71
2023/08/13 08:24:26;;;;;;;1.88;1.50;;;26.10;52.60;;;;;;5133697;27;20074;-72
2023/08/13 08:26:51;;;;;;;1.95;1.40;;;26.10;52.50;;;;;;5134408;27;20114;-72
2023/08/13 08:29:17;;;;;;;1.33;1.20;;;26.10;52.40;;;;;;5134030;27;20532;-71
2023/08/13 08:31:43;;;;;;;2.00;1.23;;;26.20;52.40;;;;;;5148983;27;20026;-73
2023/08/13 08:34:09;;;;;;;1.10;1.10;;;26.20;52.30;;;;;;5149836;27;20034;-71
2023/08/13 08:36:34;;;;;;;1.30;1.20;;;26.20;52.30;;;;;;5134269;27;20057;-72
2023/08/13 08:39:00;;;;;;;1.55;1.45;;;26.30;52.20;;;;;;5133747;27;20031;-72
2023/08/13 08:41:30;;;;;;;1.40;1.30;;;26.30;52.20;;;;;;5133877;27;20023;-72
2023/08/13 08:43:58;;;;;;;1.60;1.50;;;26.40;52.10;;;;;;5133396;27;20023;-72
2023/08/13 08:46:29;;;;;;;1.63;1.45;;;26.40;52.00;;;;;;5149353;27;20019;-72
2023/08/13 08:48:56;;;;;;;1.83;1.27;;;26.40;52.00;;;;;;5133867;27;20027;-73
2023/08/13 08:51:22;;;;;;;1.40;1.23;;;26.50;51.90;;;;;;5133815;27;20083;-73
2023/08/13 08:53:49;;;;;;;1.58;1.48;;;26.60;51.90;;;;;;5133217;28;20035;-73
2023/08/13 08:56:15;;;;;;;1.58;1.40;;;26.70;51.90;;;;;;5133259;27;20077;-73
2023/08/13 08:58:41;;;;;;;1.48;1.38;;;26.70;51.80;;;;;;5133671;28;20480;-72
2023/08/13 09:01:07;;;;;;;1.40;1.30;;;26.80;51.70;;;;;;5133838;28;20019;-72
2023/08/13 09:03:32;;;;;;;1.73;1.52;;;26.90;51.60;;;;;;5133662;28;20059;-73
2023/08/13 09:05:58;;;;;;;1.50;1.40;;;27.00;51.50;;;;;;5133344;27;20116;-72
2023/08/13 09:08:25;;;;;;;1.50;1.40;;;27.00;51.40;;;;;;5133540;27;20500;-73
2023/08/13 09:10:50;;;;;;;1.58;1.48;;;27.10;51.30;;;;;;5137718;27;20433;-72
2023/08/13 09:13:16;;;;;;;1.33;1.23;;;27.10;51.20;;;;;;5153492;27;20023;-72
2023/08/13 09:15:48;;;;;;;1.88;1.33;;;27.20;51.10;;;;;;5137119;27;20080;-72
2023/08/13 09:18:13;;;;;;;1.42;1.33;;;27.30;51.00;;;;;;5137690;27;20023;-73
2023/08/13 09:20:47;;;;;;;2.70;1.30;;;27.30;50.90;;;;;;5153445;27;20437;-72
2023/08/13 09:23:21;;;;;;;1.30;1.23;;;27.40;50.80;;;;;;5137537;27;20023;-73
2023/08/13 09:25:52;;;;;;;1.50;1.40;;;27.40;50.70;;;;;;5152750;27;20027;-73
2023/08/13 09:28:17;;;;;;;2.47;1.58;;;27.40;50.60;;;;;;5154038;27;20067;-73
2023/08/13 09:30:44;;;;;;;1.63;1.48;;;27.40;50.50;;;;;;5137636;27;20038;-72
2023/08/13 09:33:13;;;;;;;1.83;1.60;;;27.50;50.60;;;;;;5137666;27;20027;-72
2023/08/13 09:35:39;;;;;;;1.83;1.52;;;27.60;50.50;;;;;;5136784;27;20027;-73
2023/08/13 09:38:04;;;;;;;1.40;1.30;;;27.60;50.30;;;;;;5137122;27;20036;-72
2023/08/13 09:40:30;;;;;;;2.17;1.50;;;27.60;50.20;;;;;;5137232;27;20376;-72
2023/08/13 09:42:58;;;;;;;1.58;1.48;;;27.70;50.10;;;;;;5137139;27;20106;-72
2023/08/13 09:45:28;;;;;;;1.40;1.30;;;27.70;50.00;;;;;;5153265;27;20372;-74
2023/08/13 09:47:55;;;;;;;1.60;1.50;;;27.70;49.90;;;;;;5136470;27;20488;-73
2023/08/13 09:50:25;;;;;;;1.50;1.40;;;27.70;49.90;;;;;;5137228;27;20503;-73
2023/08/13 09:52:53;;;;;;;1.30;1.20;;;27.70;49.80;;;;;;5136909;27;20035;-73
2023/08/13 09:55:23;;;;;;;1.60;1.42;;;27.70;49.80;;;;;;5136398;27;20064;-73
2023/08/13 09:57:51;;;;;;;2.22;1.60;;;27.70;49.70;;;;;;5136555;27;20031;-73
2023/08/13 10:00:17;;;;;;;2.10;1.58;;;27.70;49.60;;;;;;5152830;27;20484;-73
2023/08/13 10:02:44;;;;;;;1.27;1.17;;;27.70;49.60;;;;;;5136891;27;20054;-73
2023/08/13 10:05:10;;;;;;;1.85;1.40;;;27.70;49.50;;;;;;5136867;27;20031;-73
2023/08/13 10:07:36;;;;;;;1.52;1.40;;;27.70;49.50;;;;;;5135606;27;20376;-73
2023/08/13 10:10:03;;;;;;;1.50;1.40;;;27.60;49.50;;;;;;5136772;27;20092;-73
2023/08/13 10:12:30;;;;;;;1.33;1.27;;;27.70;49.50;;;;;;5136829;27;20031;-73
2023/08/13 10:14:56;;;;;;;1.48;1.38;;;27.70;49.40;;;;;;5136524;27;20487;-73
2023/08/13 10:17:26;;;;;;;1.52;1.42;;;27.70;49.40;;;;;;5152336;27;20035;-73
2023/08/13 10:19:54;;;;;;;1.40;1.30;;;27.70;49.40;;;;;;5135677;27;20035;-73
2023/08/13 10:22:40;;;;;;;1.80;1.10;;;27.60;49.30;;;;;;5136234;27;20035;-70
2023/08/13 10:25:07;;;;;;;2.35;1.40;;;27.60;49.20;;;;;;5136491;27;20055;-73
2023/08/13 10:27:43;;;;;;;1.88;1.50;;;27.60;49.40;;;;;;5151868;27;20037;-72
2023/08/13 10:30:10;;;;;;;2.60;1.52;;;27.60;49.30;;;;;;5152315;27;20033;-71
2023/08/13 10:32:57;;;;;;;1.40;1.30;;;27.60;49.40;;;;;;5151706;27;20031;-71
2023/08/13 10:35:29;;;;;;;1.38;1.27;;;27.60;49.30;;;;;;5136424;27;20042;-73
2023/08/13 10:38:01;;;;;;;1.27;1.17;;;27.60;49.50;;;;;;5135817;27;20469;-73
2023/08/13 10:40:27;;;;;;;1.42;1.33;;;27.60;49.40;;;;;;5136008;27;20047;-71
2023/08/13 10:42:55;;;;;;;1.50;1.40;;;27.60;49.50;;;;;;5151876;27;20087;-71
2023/08/13 10:45:24;;;;;;;1.50;1.40;;;27.50;49.40;;;;;;5151961;27;20136;-72
2023/08/13 10:47:54;;;;;;;1.77;1.38;;;27.50;49.50;;;;;;5135721;27;20495;-72
2023/08/13 10:50:29;;;;;;;1.13;1.02;;;27.50;49.50;;;;;;5135916;27;20430;-72
2023/08/13 10:53:02;;;;;;;1.50;1.40;;;27.50;49.60;;;;;;5135823;27;20377;-72
2023/08/13 10:55:31;;;;;;;1.45;1.35;;;27.60;49.60;;;;;;5135314;27;20024;-73
2023/08/13 10:57:56;;;;;;;1.50;1.40;;;27.50;50.20;;;;;;5135644;27;20027;-72
2023/08/13 11:00:26;;;;;;;1.45;1.33;;;27.60;49.60;;;;;;5135500;27;20483;-72
2023/08/13 11:02:52;;;;;;;1.60;1.50;;;27.70;49.60;;;;;;5135644;27;20027;-72
2023/08/13 11:05:19;;;;;;;1.45;1.35;;;27.70;49.50;;;;;;5135723;27;20469;-72
2023/08/13 11:07:46;;;;;;;1.27;1.15;;;27.80;49.50;;;;;;5135271;27;20069;-72
2023/08/13 11:10:20;;;;;;;1.30;1.20;;;27.90;49.40;;;;;;5134581;27;20062;-72
2023/08/13 11:12:47;;;;;;;1.60;1.50;;;27.90;49.40;;;;;;5135481;27;20062;-72
2023/08/13 11:15:14;;;;;;;1.55;1.42;;;28.00;49.40;;;;;;5135638;27;20461;-72
2023/08/13 11:17:46;;;;;;;1.70;1.60;;;27.90;49.20;;;;;;5135213;27;20023;-72
2023/08/13 11:20:21;;;;;;;1.20;1.10;;;28.00;49.30;;;;;;5151250;27;20431;-72
2023/08/13 11:22:47;;;;;;;1.50;1.40;;;28.00;49.20;;;;;;5135405;27;20027;-72
2023/08/13 11:25:15;;;;;;;1.40;1.30;;;28.00;49.30;;;;;;5151533;27;20023;-71
2023/08/13 11:27:41;;;;;;;1.40;1.30;;;28.00;49.20;;;;;;5134971;27;20024;-72
2023/08/13 11:30:08;;;;;;;1.45;1.35;;;28.10;49.20;;;;;;5134850;27;20510;-72
2023/08/13 11:32:36;;;;;;;1.20;1.10;;;28.10;49.10;;;;;;5134482;27;20444;-72
2023/08/13 11:35:09;;;;;;;1.50;1.40;;;28.10;49.00;;;;;;5150843;27;20520;-72
2023/08/13 11:37:36;;;;;;;1.45;1.35;;;28.10;48.90;;;;;;5151227;27;20378;-72
2023/08/13 11:40:02;;;;;;;1.40;1.30;;;28.20;49.00;;;;;;5134660;27;20035;-73
2023/08/13 11:42:28;;;;;;;1.52;1.25;;;28.10;48.90;;;;;;5134875;27;20087;-72
2023/08/13 11:44:53;;;;;;;1.38;1.27;;;28.10;49.00;;;;;;5134375;27;20023;-72
2023/08/13 11:47:25;;;;;;;1.85;1.60;;;28.10;49.00;;;;;;5134628;27;20111;-72
2023/08/13 11:49:50;;;;;;;1.65;1.40;;;28.00;49.00;;;;;;5150309;27;20143;-72
2023/08/13 11:52:19;;;;;;;1.23;1.20;;;28.00;49.10;;;;;;5150226;27;20050;-72
2023/08/13 11:54:44;;;;;;;1.42;1.33;;;28.00;49.10;;;;;;5134333;27;20388;-71
2023/08/13 11:57:10;;;;;;;1.40;1.30;;;28.00;49.10;;;;;;5150322;27;20109;-72
2023/08/13 11:59:36;;;;;;;1.50;1.40;;;28.10;49.10;;;;;;5134385;27;20026;-72
2023/08/13 12:02:01;;;;;;;1.42;1.33;;;28.20;49.10;;;;;;5149925;27;20019;-72
2023/08/13 12:04:34;;;;;;;1.55;1.45;;;28.20;49.00;;;;;;5134196;27;20023;-72
2023/08/13 12:07:02;;;;;;;1.58;1.48;;;28.30;49.00;;;;;;5134295;27;20411;-72
2023/08/13 12:09:27;;;;;;;1.50;1.40;;;28.40;48.90;;;;;;5133905;27;20470;-72
2023/08/13 12:11:54;;;;;;;1.50;1.40;;;28.40;48.80;;;;;;5133408;27;20104;-72
2023/08/13 12:14:20;;;;;;;1.00;1.00;;;28.50;48.80;;;;;;5133935;27;20027;-72
2023/08/13 12:16:45;;;;;;;1.40;1.30;;;28.40;48.80;;;;;;5133939;27;20124;-72
2023/08/13 12:19:11;;;;;;;1.60;1.50;;;28.40;48.80;;;;;;5134191;27;20062;-72
2023/08/13 12:21:37;;;;;;;1.50;1.40;;;28.30;48.80;;;;;;5133276;27;20107;-72
2023/08/13 12:24:04;;;;;;;1.45;1.20;;;28.30;48.90;;;;;;5133794;27;20477;-72
2023/08/13 12:26:32;;;;;;;1.40;1.30;;;28.30;48.90;;;;;;5149662;27;20118;-72
2023/08/13 12:28:58;;;;;;;1.80;1.27;;;28.20;48.90;;;;;;5133929;27;20034;-72
2023/08/13 12:31:25;;;;;;;1.40;1.20;;;28.20;49.00;;;;;;5133424;27;20064;-72
2023/08/13 12:33:52;;;;;;;1.30;1.20;;;28.20;49.00;;;;;;5149205;27;20462;-72
2023/08/13 12:36:18;;;;;;;1.20;1.20;;;28.20;49.00;;;;;;5133958;27;20034;-72
2023/08/13 12:38:44;;;;;;;1.17;1.08;;;28.30;49.00;;;;;;5149600;27;20027;-72
2023/08/13 12:41:10;;;;;;;1.20;1.13;;;28.30;49.60;;;;;;5133756;27;20038;-72
2023/08/13 12:43:36;;;;;;;1.30;1.20;;;28.30;48.90;;;;;;5130738;27;20030;-73
2023/08/13 12:46:03;;;;;;;1.20;1.10;;;28.40;48.90;;;;;;5133239;27;20496;-73